createdAt,value
2019-06-26T00:00:08.166Z,17.33
2019-06-26T00:02:36.865Z,17.27
2019-06-26T00:05:08.255Z,17.10
2019-06-26T00:07:36.958Z,17.73
2019-06-26T00:10:06.988Z,17.87
2019-06-26T00:12:35.634Z,18.33
2019-06-26T00:15:09.085Z,18.10
2019-06-26T00:17:37.714Z,19.03
2019-06-26T00:20:07.462Z,18.73
2019-06-26T00:22:36.024Z,17.70
2019-06-26T00:25:06.930Z,16.80
2019-06-26T00:27:35.593Z,17.57
2019-06-26T00:30:06.402Z,17.27
2019-06-26T00:32:34.987Z,18.27
2019-06-26T00:35:04.390Z,18.50
2019-06-26T00:37:33.123Z,18.47
2019-06-26T00:40:01.769Z,18.60
2019-06-26T00:42:30.422Z,18.77
2019-06-26T00:44:59.004Z,18.77
2019-06-26T00:47:27.593Z,17.97
2019-06-26T00:49:56.299Z,19.13
2019-06-26T00:52:24.958Z,18.63
2019-06-26T00:54:53.607Z,18.53
2019-06-26T00:57:22.197Z,18.77
2019-06-26T00:59:50.839Z,19.47
2019-06-26T01:02:19.447Z,20.17
2019-06-26T01:04:49.630Z,20.70
2019-06-26T01:07:18.229Z,20.67
2019-06-26T01:09:46.814Z,19.93
2019-06-26T01:12:23.926Z,19.00
2019-06-26T01:14:55.033Z,20.20
2019-06-26T01:17:23.757Z,19.57
2019-06-26T01:19:52.309Z,19.67
2019-06-26T01:22:21.200Z,19.23
2019-06-26T01:24:49.911Z,18.97
2019-06-26T01:27:18.757Z,19.77
2019-06-26T01:29:47.398Z,19.47
2019-06-26T01:32:16.135Z,19.23
2019-06-26T01:34:44.698Z,19.20
2019-06-26T01:37:13.359Z,19.10
2019-06-26T01:39:41.937Z,19.27
2019-06-26T01:42:10.674Z,20.10
2019-06-26T01:44:39.234Z,19.77
2019-06-26T01:47:07.834Z,20.03
2019-06-26T01:49:36.401Z,20.73
2019-06-26T01:52:05.155Z,20.80
2019-06-26T01:54:33.710Z,21.93
2019-06-26T01:57:02.301Z,21.70
2019-06-26T01:59:30.869Z,21.87
2019-06-26T02:01:59.538Z,23.50
2019-06-26T02:04:28.121Z,22.57
2019-06-26T02:06:56.713Z,23.10
2019-06-26T02:09:25.372Z,22.50
2019-06-26T02:11:54.052Z,22.23
2019-06-26T02:14:30.872Z,22.17
2019-06-26T02:16:53.071Z,21.93
2019-06-26T02:19:21.882Z,22.30
2019-06-26T02:21:50.481Z,23.20
2019-06-26T02:24:19.115Z,21.60
2019-06-26T02:26:47.764Z,22.47
2019-06-26T02:29:16.342Z,22.27
2019-06-26T02:31:45.006Z,23.63
2019-06-26T02:34:13.578Z,22.50
2019-06-26T02:36:42.241Z,26.40
2019-06-26T02:39:10.942Z,26.93
2019-06-26T02:41:39.602Z,26.70
2019-06-26T02:44:08.229Z,25.47
2019-06-26T02:46:36.831Z,24.90
2019-06-26T02:49:05.465Z,24.27
2019-06-26T02:51:34.163Z,25.63
2019-06-26T02:54:02.838Z,24.80
2019-06-26T02:56:31.398Z,24.37
2019-06-26T02:59:00.136Z,24.70
2019-06-26T03:01:28.752Z,23.57
2019-06-26T03:03:57.347Z,24.70
2019-06-26T03:06:26.054Z,24.00
2019-06-26T03:08:54.713Z,23.00
2019-06-26T03:11:23.438Z,24.77
2019-06-26T03:13:52.019Z,24.23
2019-06-26T03:16:20.645Z,25.33
2019-06-26T03:18:49.284Z,24.47
2019-06-26T03:21:18.027Z,24.83
2019-06-26T03:23:46.671Z,25.73
2019-06-26T03:26:15.266Z,26.53
2019-06-26T03:28:43.893Z,25.07
2019-06-26T03:31:12.497Z,25.33
2019-06-26T03:33:41.070Z,25.53
2019-06-26T03:36:09.730Z,26.00
2019-06-26T03:38:38.375Z,25.97
2019-06-26T03:41:07.022Z,27.03
2019-06-26T03:43:35.878Z,27.97
2019-06-26T03:46:04.801Z,29.27
2019-06-26T03:48:33.433Z,26.80
2019-06-26T03:51:02.039Z,26.63
2019-06-26T03:53:30.744Z,25.00
2019-06-26T03:55:59.354Z,23.07
2019-06-26T03:58:27.921Z,22.17
2019-06-26T04:00:56.591Z,23.23
2019-06-26T04:03:25.157Z,22.67
2019-06-26T04:05:53.860Z,22.17
2019-06-26T04:08:22.458Z,21.50
2019-06-26T04:10:51.090Z,20.23
2019-06-26T04:13:19.755Z,20.00
2019-06-26T04:15:50.891Z,18.70
2019-06-26T04:18:18.622Z,19.17
2019-06-26T04:20:47.223Z,20.17
2019-06-26T04:23:16.011Z,19.13
2019-06-26T04:25:44.569Z,19.23
2019-06-26T04:28:13.323Z,18.27
2019-06-26T04:30:41.946Z,18.57
2019-06-26T04:33:10.536Z,17.53
2019-06-26T04:35:39.561Z,16.83
2019-06-26T04:38:08.604Z,16.23
2019-06-26T04:40:37.246Z,15.80
2019-06-26T04:43:05.905Z,14.63
2019-06-26T04:45:34.532Z,14.90
2019-06-26T04:48:06.015Z,14.50
2019-06-26T04:50:33.332Z,14.10
2019-06-26T04:53:02.074Z,13.67
2019-06-26T04:55:30.641Z,13.60
2019-06-26T04:57:59.293Z,13.03
2019-06-26T05:00:27.997Z,13.33
2019-06-26T05:02:56.722Z,13.37
2019-06-26T05:05:38.631Z,12.83
2019-06-26T05:07:55.592Z,12.90
2019-06-26T05:10:24.157Z,13.43
2019-06-26T05:12:52.719Z,13.03
2019-06-26T05:15:21.461Z,13.07
2019-06-26T05:17:50.128Z,13.13
2019-06-26T05:20:18.761Z,13.07
2019-06-26T05:22:47.340Z,12.67
2019-06-26T05:25:16.941Z,11.70
2019-06-26T05:27:45.634Z,11.83
2019-06-26T05:30:14.909Z,11.00
2019-06-26T05:32:43.506Z,11.00
2019-06-26T05:35:12.128Z,12.03
2019-06-26T05:37:40.785Z,11.83
2019-06-26T05:40:13.445Z,11.17
2019-06-26T05:42:42.160Z,11.03
2019-06-26T05:45:12.929Z,10.63
2019-06-26T05:47:41.691Z,11.50
2019-06-26T05:50:11.479Z,10.80
2019-06-26T05:52:42.852Z,10.03
2019-06-26T05:55:10.693Z,10.10
2019-06-26T05:57:41.809Z,10.07
2019-06-26T06:00:10.865Z,10.28
2019-06-26T06:02:39.422Z,9.40
2019-06-26T06:05:09.453Z,9.95
2019-06-26T06:07:38.084Z,9.58
2019-06-26T06:10:08.414Z,9.90
2019-06-26T06:12:37.109Z,10.80
2019-06-26T06:15:07.843Z,10.05
2019-06-26T06:17:36.846Z,9.65
2019-06-26T06:20:06.769Z,10.20
2019-06-26T06:22:35.404Z,9.63
2019-06-26T06:25:05.134Z,10.32
2019-06-26T06:27:33.760Z,10.00
2019-06-26T06:30:02.661Z,10.53
2019-06-26T06:32:31.257Z,10.65
2019-06-26T06:34:59.822Z,10.13
2019-06-26T06:37:28.492Z,9.98
2019-06-26T06:39:57.014Z,10.25
2019-06-26T06:42:25.675Z,9.53
2019-06-26T06:44:54.297Z,9.80
2019-06-26T06:47:22.902Z,10.38
2019-06-26T06:49:51.465Z,9.75
2019-06-26T06:52:20.130Z,8.85
2019-06-26T06:54:48.756Z,10.48
2019-06-26T06:57:17.413Z,10.28
2019-06-26T06:59:45.976Z,9.38
2019-06-26T07:02:14.641Z,9.78
2019-06-26T07:04:43.273Z,9.58
2019-06-26T07:07:11.941Z,9.48
2019-06-26T07:09:40.513Z,9.18
2019-06-26T07:12:09.231Z,8.63
2019-06-26T07:14:37.858Z,8.50
2019-06-26T07:17:19.895Z,8.88
2019-06-26T07:19:36.797Z,9.25
2019-06-26T07:22:07.338Z,8.65
2019-06-26T07:24:35.728Z,8.78
2019-06-26T07:27:04.432Z,8.68
2019-06-26T07:29:33.026Z,8.18
2019-06-26T07:32:01.585Z,8.78
2019-06-26T07:34:30.241Z,8.28
2019-06-26T07:36:58.870Z,8.83
2019-06-26T07:39:27.457Z,8.03
2019-06-26T07:41:56.027Z,9.23
2019-06-26T07:44:24.618Z,8.85
2019-06-26T07:46:53.177Z,8.60
2019-06-26T07:49:21.832Z,8.15
2019-06-26T07:51:50.530Z,8.20
2019-06-26T07:54:19.225Z,8.70
2019-06-26T07:56:47.841Z,8.05
2019-06-26T07:59:16.404Z,7.25
2019-06-26T08:01:44.991Z,7.75
2019-06-26T08:04:13.631Z,7.72
2019-06-26T08:06:42.366Z,7.50
2019-06-26T08:09:10.921Z,7.10
2019-06-26T08:11:39.507Z,7.65
2019-06-26T08:14:08.205Z,7.70
2019-06-26T08:16:36.878Z,7.15
2019-06-26T08:19:05.488Z,7.80
2019-06-26T08:21:34.222Z,7.20
2019-06-26T08:24:02.826Z,7.20
2019-06-26T08:26:31.441Z,6.78
2019-06-26T08:29:00.087Z,7.17
2019-06-26T08:31:28.626Z,7.85
2019-06-26T08:33:57.310Z,7.47
2019-06-26T08:36:25.865Z,6.97
2019-06-26T08:38:54.526Z,7.75
2019-06-26T08:41:23.101Z,7.33
2019-06-26T08:43:51.677Z,7.87
2019-06-26T08:46:20.235Z,7.20
2019-06-26T08:48:51.846Z,7.42
2019-06-26T08:51:19.258Z,7.80
2019-06-26T08:53:47.853Z,7.22
2019-06-26T08:56:16.435Z,7.55
2019-06-26T08:58:45.017Z,7.62
2019-06-26T09:01:13.574Z,7.65
2019-06-26T09:03:42.291Z,7.37
2019-06-26T09:06:10.829Z,7.97
2019-06-26T09:08:39.394Z,7.60
2019-06-26T09:11:07.977Z,7.87
2019-06-26T09:13:36.605Z,8.10
2019-06-26T09:16:05.267Z,7.70
2019-06-26T09:18:35.873Z,7.47
2019-06-26T09:21:04.189Z,6.90
2019-06-26T09:23:32.949Z,6.65
2019-06-26T09:26:01.630Z,5.50
2019-06-26T09:28:30.286Z,6.70
2019-06-26T09:30:58.897Z,7.10
2019-06-26T09:33:27.490Z,6.67
2019-06-26T09:35:56.144Z,6.72
2019-06-26T09:38:24.733Z,6.30
2019-06-26T09:40:53.288Z,6.08
2019-06-26T09:43:21.901Z,6.00
2019-06-26T09:45:50.448Z,5.75
2019-06-26T09:48:19.106Z,5.33
2019-06-26T09:50:47.687Z,5.50
2019-06-26T09:53:16.300Z,5.10
2019-06-26T09:55:44.857Z,5.40
2019-06-26T09:58:13.779Z,5.20
2019-06-26T10:00:42.577Z,5.05
2019-06-26T10:03:11.300Z,5.12
2019-06-26T10:05:40.521Z,5.30
2019-06-26T10:08:09.107Z,4.80
2019-06-26T10:10:37.769Z,4.70
2019-06-26T10:13:06.527Z,5.40
2019-06-26T10:15:35.161Z,5.20
2019-06-26T10:18:03.930Z,5.85
2019-06-26T10:20:32.647Z,5.47
2019-06-26T10:23:01.221Z,5.10
2019-06-26T10:25:29.961Z,4.95
2019-06-26T10:27:58.585Z,5.45
2019-06-26T10:30:27.315Z,4.90
2019-06-26T10:32:55.865Z,4.50
2019-06-26T10:35:24.449Z,4.80
2019-06-26T10:37:53.253Z,4.35
2019-06-26T10:40:22.075Z,4.30
2019-06-26T10:42:50.780Z,4.22
2019-06-26T10:45:20.235Z,4.00
2019-06-26T10:47:48.897Z,4.00
2019-06-26T10:50:17.596Z,4.15
2019-06-26T10:52:46.221Z,3.87
2019-06-26T10:55:15.028Z,4.12
2019-06-26T10:57:43.646Z,4.00
2019-06-26T11:00:12.843Z,4.12
2019-06-26T11:02:41.535Z,4.33
2019-06-26T11:05:11.152Z,4.45
2019-06-26T11:07:39.784Z,3.75
2019-06-26T11:10:09.600Z,4.10
2019-06-26T11:12:38.242Z,3.30
2019-06-26T11:15:08.685Z,3.60
2019-06-26T11:17:37.372Z,3.67
2019-06-26T11:20:07.941Z,3.87
2019-06-26T11:22:36.810Z,3.92
2019-06-26T11:25:07.411Z,3.98
2019-06-26T11:27:36.105Z,4.22
2019-06-26T11:30:07.786Z,4.40
2019-06-26T11:32:36.404Z,3.98
2019-06-26T11:35:06.729Z,4.40
2019-06-26T11:37:35.361Z,4.62
2019-06-26T11:40:06.365Z,4.85
2019-06-26T11:42:35.068Z,4.60
2019-06-26T11:45:05.354Z,4.25
2019-06-26T11:47:33.952Z,4.12
2019-06-26T11:50:02.942Z,4.22
2019-06-26T11:52:31.498Z,4.00
2019-06-26T11:55:02.901Z,4.28
2019-06-26T11:57:30.354Z,4.25
2019-06-26T11:59:58.910Z,4.90
2019-06-26T12:02:27.498Z,4.65
2019-06-26T12:04:56.077Z,4.58
2019-06-26T12:07:24.638Z,4.83
2019-06-26T12:09:53.337Z,4.28
2019-06-26T12:12:22.104Z,4.60
2019-06-26T12:14:50.830Z,4.50
2019-06-26T12:17:19.495Z,4.72
2019-06-26T12:19:48.054Z,4.62
2019-06-26T12:22:16.713Z,4.35
2019-06-26T12:24:45.271Z,4.10
2019-06-26T12:27:14.738Z,4.87
2019-06-26T12:29:43.303Z,4.50
2019-06-26T12:32:11.961Z,3.92
2019-06-26T12:34:40.519Z,3.80
2019-06-26T12:37:09.101Z,4.20
2019-06-26T12:39:37.671Z,4.30
2019-06-26T12:42:06.268Z,4.12
2019-06-26T12:44:34.805Z,4.10
2019-06-26T12:47:03.465Z,4.25
2019-06-26T12:49:32.153Z,4.00
2019-06-26T12:52:00.753Z,4.20
2019-06-26T12:54:29.306Z,3.87
2019-06-26T12:56:57.889Z,4.12
2019-06-26T12:59:26.447Z,4.20
2019-06-26T13:01:55.173Z,3.65
2019-06-26T13:04:23.797Z,3.90
2019-06-26T13:06:52.387Z,3.95
2019-06-26T13:09:21.013Z,3.92
2019-06-26T13:11:49.674Z,3.72
2019-06-26T13:14:18.303Z,4.00
2019-06-26T13:16:46.889Z,4.22
2019-06-26T13:19:15.526Z,4.20
2019-06-26T13:21:44.172Z,4.12
2019-06-26T13:24:12.866Z,4.30
2019-06-26T13:26:41.512Z,4.17
2019-06-26T13:29:10.306Z,4.30
2019-06-26T13:31:39.123Z,4.05
2019-06-26T13:34:07.749Z,4.42
2019-06-26T13:36:36.476Z,4.50
2019-06-26T13:39:06.577Z,4.90
2019-06-26T13:41:35.165Z,4.80
2019-06-26T13:44:03.862Z,4.70
2019-06-26T13:46:32.486Z,4.35
2019-06-26T13:49:01.072Z,5.12
2019-06-26T13:51:29.701Z,4.90
2019-06-26T13:53:58.426Z,4.70
2019-06-26T13:56:26.988Z,4.50
2019-06-26T13:58:55.639Z,4.28
2019-06-26T14:01:24.422Z,4.97
2019-06-26T14:03:53.143Z,4.53
2019-06-26T14:06:21.699Z,5.17
2019-06-26T14:08:56.305Z,4.72
2019-06-26T14:11:27.756Z,4.87
2019-06-26T14:13:56.683Z,5.28
2019-06-26T14:16:25.658Z,5.40
2019-06-26T14:18:54.685Z,5.30
2019-06-26T14:21:26.012Z,5.00
2019-06-26T14:23:54.016Z,5.40
2019-06-26T14:26:22.761Z,5.12
2019-06-26T14:28:54.005Z,5.65
2019-06-26T14:31:22.344Z,5.50
2019-06-26T14:33:51.370Z,5.92
2019-06-26T14:36:23.274Z,6.37
2019-06-26T14:38:54.771Z,6.33
2019-06-26T14:41:23.380Z,5.95
2019-06-26T14:43:52.173Z,6.45
2019-06-26T14:46:20.898Z,6.12
2019-06-26T14:48:49.456Z,6.40
2019-06-26T14:51:18.147Z,6.75
2019-06-26T14:53:46.818Z,6.65
2019-06-26T14:56:15.406Z,6.37
2019-06-26T14:58:43.960Z,6.58
2019-06-26T15:01:12.554Z,6.55
2019-06-26T15:03:41.109Z,6.35
2019-06-26T15:06:16.571Z,6.70
2019-06-26T15:08:40.233Z,6.87
2019-06-26T15:11:09.260Z,6.80
2019-06-26T15:13:38.153Z,6.42
2019-06-26T15:16:07.057Z,6.78
2019-06-26T15:18:35.788Z,6.53
2019-06-26T15:21:04.892Z,7.10
2019-06-26T15:23:33.644Z,7.03
2019-06-26T15:26:10.581Z,6.87
2019-06-26T15:28:39.773Z,6.10
2019-06-26T15:31:08.915Z,6.60
2019-06-26T15:33:37.922Z,6.85
2019-06-26T15:36:06.537Z,6.42
2019-06-26T15:38:35.198Z,6.80
2019-06-26T15:41:03.835Z,6.60
2019-06-26T15:43:32.414Z,6.30
2019-06-26T15:46:01.049Z,6.28
2019-06-26T15:48:29.632Z,6.30
2019-06-26T15:50:58.330Z,7.03
2019-06-26T15:53:26.917Z,6.47
2019-06-26T15:55:55.481Z,6.70
2019-06-26T15:58:24.825Z,6.95
2019-06-26T16:00:53.398Z,6.55
2019-06-26T16:03:22.057Z,6.37
2019-06-26T16:05:50.703Z,6.22
2019-06-26T16:08:19.532Z,6.65
2019-06-26T16:10:48.066Z,6.30
2019-06-26T16:13:16.802Z,6.87
2019-06-26T16:15:45.366Z,6.65
2019-06-26T16:18:15.697Z,6.78
2019-06-26T16:20:45.013Z,7.28
2019-06-26T16:23:16.056Z,6.97
2019-06-26T16:25:45.248Z,6.85
2019-06-26T16:28:14.489Z,6.28
2019-06-26T16:30:43.650Z,6.67
2019-06-26T16:33:12.244Z,6.60
2019-06-26T16:35:40.873Z,6.62
2019-06-26T16:38:09.465Z,6.20
2019-06-26T16:40:38.057Z,6.85
2019-06-26T16:43:06.686Z,6.05
2019-06-26T16:45:36.437Z,7.15
2019-06-26T16:48:14.371Z,6.62
2019-06-26T16:50:43.366Z,6.92
2019-06-26T16:53:13.160Z,6.30
2019-06-26T16:55:42.232Z,6.40
2019-06-26T16:58:11.837Z,6.75
2019-06-26T17:00:40.684Z,6.72
2019-06-26T17:03:09.373Z,6.67
2019-06-26T17:05:38.110Z,6.40
2019-06-26T17:08:06.806Z,6.55
2019-06-26T17:10:35.503Z,6.40
2019-06-26T17:13:04.669Z,6.45
2019-06-26T17:15:33.678Z,7.30
2019-06-26T17:18:02.572Z,7.12
2019-06-26T17:20:31.169Z,7.65
2019-06-26T17:23:05.499Z,8.03
2019-06-26T17:25:30.164Z,6.30
2019-06-26T17:27:58.877Z,6.30
2019-06-26T17:30:27.597Z,6.75
2019-06-26T17:32:56.255Z,7.10
2019-06-26T17:35:24.944Z,6.92
2019-06-26T17:37:53.540Z,6.97
2019-06-26T17:40:22.557Z,6.72
2019-06-26T17:42:51.247Z,7.17
2019-06-26T17:45:20.953Z,7.30
2019-06-26T17:47:50.067Z,7.58
2019-06-26T17:50:20.602Z,7.08
2019-06-26T17:52:49.681Z,7.12
2019-06-26T20:19:07.007Z,10.10
2019-06-26T20:21:35.794Z,10.43
2019-06-26T20:26:53.923Z,10.40
2019-06-26T20:29:22.610Z,10.50
2019-06-26T20:31:51.923Z,10.03
2019-06-26T20:34:20.521Z,10.03
2019-06-26T20:36:49.274Z,9.50
2019-06-26T20:39:17.843Z,10.07
2019-06-26T20:41:47.073Z,9.77
2019-06-26T20:44:19.217Z,10.23
2019-06-26T20:46:48.243Z,10.47
2019-06-26T20:49:17.142Z,10.30
2019-06-26T20:51:46.368Z,11.17
2019-06-26T20:54:15.238Z,10.13
2019-06-26T20:56:44.308Z,9.43
2019-06-26T20:59:13.287Z,10.23
2019-06-26T21:01:42.199Z,10.67
2019-06-26T21:04:11.073Z,11.37
2019-06-26T21:06:39.738Z,9.83
2019-06-26T21:09:09.777Z,11.43
2019-06-26T21:11:38.535Z,10.53
2019-06-26T21:14:07.213Z,10.77
2019-06-26T21:16:36.081Z,10.77
2019-06-26T21:19:04.804Z,11.13
2019-06-26T21:21:33.561Z,10.80
2019-06-26T21:24:02.379Z,10.83
2019-06-26T21:26:31.994Z,12.40
2019-06-26T21:29:00.949Z,12.07
2019-06-26T21:31:29.847Z,11.67
2019-06-26T21:33:58.489Z,11.30
2019-06-26T21:36:27.226Z,10.63
2019-06-26T21:38:56.179Z,10.33
2019-06-26T21:41:24.831Z,11.93
2019-06-26T21:43:53.600Z,11.50
2019-06-26T21:46:22.233Z,11.80
2019-06-26T21:48:53.134Z,11.30
2019-06-26T21:51:21.879Z,11.17
2019-06-26T21:53:50.638Z,10.90
2019-06-26T21:56:19.714Z,11.63
2019-06-26T21:58:50.322Z,12.03
2019-06-26T22:01:19.992Z,11.53
2019-06-26T22:03:48.889Z,12.60
2019-06-26T22:06:19.367Z,12.13
2019-06-26T22:08:49.017Z,12.17
2019-06-26T22:11:18.480Z,12.13
2019-06-26T22:13:47.321Z,11.90
2019-06-26T22:16:16.468Z,12.77
2019-06-26T22:18:46.024Z,12.93
2019-06-26T22:21:15.558Z,12.33
2019-06-26T22:23:44.822Z,13.07
2019-06-26T22:26:14.506Z,13.93
2019-06-26T22:28:44.177Z,13.67
2019-06-26T22:31:12.873Z,13.60
2019-06-26T22:33:41.471Z,13.40
2019-06-26T22:36:10.097Z,12.93
2019-06-26T22:38:38.698Z,14.23
2019-06-26T22:41:07.449Z,13.63
2019-06-26T22:43:36.081Z,14.87
2019-06-26T22:46:04.790Z,14.00
2019-06-26T22:48:33.461Z,14.83
2019-06-26T22:51:02.030Z,14.87
2019-06-26T22:53:30.772Z,15.90
2019-06-26T22:56:07.482Z,15.40
2019-06-26T22:58:29.725Z,15.57
2019-06-26T23:00:58.399Z,14.50
2019-06-26T23:03:27.035Z,15.50
2019-06-26T23:05:55.733Z,15.40
2019-06-26T23:08:24.331Z,15.37
2019-06-26T23:10:53.274Z,16.63
2019-06-26T23:13:21.970Z,15.63
2019-06-26T23:15:51.008Z,16.07
2019-06-26T23:18:20.104Z,16.57
2019-06-26T23:20:48.960Z,16.50
2019-06-26T23:23:17.523Z,17.47
2019-06-26T23:25:46.089Z,16.23
2019-06-26T23:28:14.816Z,17.07
2019-06-26T23:30:43.451Z,15.93
2019-06-26T23:33:12.065Z,16.77
2019-06-26T23:35:40.682Z,15.93
2019-06-26T23:38:09.286Z,17.57
2019-06-26T23:40:37.910Z,18.43
2019-06-26T23:43:06.574Z,16.83
2019-06-26T23:45:35.279Z,17.97
2019-06-26T23:48:04.246Z,15.83
2019-06-26T23:50:32.909Z,17.43
2019-06-26T23:53:01.558Z,17.93
2019-06-26T23:55:30.197Z,17.40
2019-06-26T23:57:59.724Z,16.27
